Terminal Aerodrome Forecast
Issued by NWS Chicago, IL

Home | Current Version | Previous Version | Text Only | Print | Product List | Glossary On
Versions: 1 2 3 4 5 6 7 8 9 10 11 12 13 14 15 16 17 18 19 20 21 22 23 24 25 26 27 28 29 30 31 32 33
000
FTUS43 KLOT 292134 AAB
TAFRFD
TAF AMD
KRFD 292134Z 2922/3018 22017G26KT P6SM SCT025 BKN030
      TEMPO 2922/2923 5SM -SHRA
     FM292330 28014G22KT P6SM BKN030
     FM300200 29010KT P6SM FEW040
     FM300900 27006KT P6SM SKC=

USA.gov is the U.S. government's official web portal to all federal, state and local government web resources and services.